createdAt,value
2023-05-15T00:00:49.086Z,3.17
2023-05-15T00:03:16.292Z,3.30
2023-05-15T00:05:43.048Z,3.13
2023-05-15T00:08:09.510Z,2.83
2023-05-15T00:10:35.964Z,3.20
2023-05-15T00:13:02.528Z,3.30
2023-05-15T00:15:29.028Z,2.83
2023-05-15T00:17:55.657Z,3.27
2023-05-15T00:20:22.218Z,3.50
2023-05-15T00:22:49.206Z,3.50
2023-05-15T00:25:15.696Z,3.47
2023-05-15T00:27:42.176Z,3.67
2023-05-15T00:30:09.258Z,3.53
2023-05-15T00:32:35.780Z,3.80
2023-05-15T00:35:02.452Z,3.40
2023-05-15T00:37:30.519Z,3.77
2023-05-15T00:39:57.056Z,3.57
2023-05-15T00:42:25.589Z,3.33
2023-05-15T00:44:53.737Z,3.80
2023-05-15T00:47:21.066Z,3.10
2023-05-15T00:49:49.228Z,3.70
2023-05-15T00:52:15.826Z,3.30
2023-05-15T00:54:42.327Z,3.60
2023-05-15T00:57:09.616Z,3.33
2023-05-15T00:59:37.489Z,3.87
2023-05-15T01:02:04.264Z,3.33
2023-05-15T01:04:31.237Z,3.67
2023-05-15T01:06:57.930Z,3.30
2023-05-15T01:09:25.600Z,3.10
2023-05-15T01:11:55.053Z,3.10
2023-05-15T01:14:21.631Z,3.37
2023-05-15T01:21:17.172Z,3.47
2023-05-15T01:24:02.420Z,3.40
2023-05-15T01:26:44.038Z,3.30
2023-05-15T01:29:13.470Z,3.10
2023-05-15T01:31:42.776Z,3.77
2023-05-15T01:34:11.416Z,3.63
2023-05-15T01:36:46.255Z,3.37
2023-05-15T01:39:18.011Z,3.33
2023-05-15T01:41:54.285Z,3.73
2023-05-15T01:44:34.257Z,3.40
2023-05-15T01:47:08.596Z,3.50
2023-05-15T01:49:36.018Z,3.20
2023-05-15T01:52:12.408Z,3.53
2023-05-15T01:54:40.018Z,3.53
2023-05-15T01:57:08.893Z,3.50
2023-05-15T01:59:36.977Z,3.60
2023-05-15T02:02:05.496Z,3.50
2023-05-15T02:04:33.779Z,3.40
2023-05-15T02:07:02.914Z,3.63
2023-05-15T02:09:30.964Z,3.50
2023-05-15T02:11:57.909Z,3.20
2023-05-15T02:14:26.131Z,3.93
2023-05-15T02:16:52.640Z,3.20
2023-05-15T02:19:19.309Z,3.43
2023-05-15T02:21:45.914Z,4.13
2023-05-15T02:24:13.056Z,3.90
2023-05-15T02:27:04.538Z,3.90
2023-05-15T02:29:50.570Z,4.30
2023-05-15T02:32:29.783Z,4.00
2023-05-15T02:35:33.782Z,4.17
2023-05-15T02:38:06.030Z,4.40
2023-05-15T02:40:36.231Z,3.97
2023-05-15T02:43:06.295Z,3.90
2023-05-15T02:45:34.339Z,3.97
2023-05-15T02:48:02.257Z,3.57
2023-05-15T02:50:29.197Z,3.73
2023-05-15T02:53:05.262Z,3.80
2023-05-15T02:55:31.835Z,3.53
2023-05-15T02:57:58.877Z,3.93
2023-05-15T03:00:25.559Z,3.90
2023-05-15T03:02:52.080Z,4.10
2023-05-15T03:05:18.907Z,3.80
2023-05-15T03:07:45.346Z,3.73
2023-05-15T03:10:11.851Z,4.20
2023-05-15T03:12:39.366Z,4.20
2023-05-15T03:15:07.130Z,4.30
2023-05-15T03:17:33.764Z,3.83
2023-05-15T03:20:00.513Z,4.27
2023-05-15T03:22:26.964Z,3.97
2023-05-15T03:24:53.420Z,4.23
2023-05-15T03:27:19.847Z,3.70
2023-05-15T03:29:46.317Z,3.80
2023-05-15T03:32:12.744Z,3.90
2023-05-15T03:34:40.970Z,3.77
2023-05-15T03:37:07.618Z,3.63
2023-05-15T03:39:34.336Z,3.87
2023-05-15T03:42:00.782Z,3.40
2023-05-15T03:44:27.212Z,3.67
2023-05-15T03:46:53.671Z,3.73
2023-05-15T03:49:20.124Z,3.73
2023-05-15T03:51:46.565Z,3.67
2023-05-15T03:54:13.617Z,3.87
2023-05-15T03:56:40.188Z,3.63
2023-05-15T03:59:06.743Z,4.00
2023-05-15T04:01:35.745Z,4.07
2023-05-15T04:04:05.697Z,3.77
2023-05-15T04:06:32.120Z,3.87
2023-05-15T04:08:58.557Z,4.10
2023-05-15T04:11:25.027Z,3.83
2023-05-15T04:13:51.406Z,4.20
2023-05-15T04:16:18.028Z,3.73
2023-05-15T04:18:44.489Z,3.80
2023-05-15T04:21:10.918Z,3.80
2023-05-15T04:23:37.347Z,3.73
2023-05-15T04:26:03.805Z,3.93
2023-05-15T04:28:30.604Z,3.43
2023-05-15T04:30:58.648Z,3.70
2023-05-15T04:33:25.602Z,4.17
2023-05-15T04:35:52.167Z,3.57
2023-05-15T04:38:18.951Z,4.40
2023-05-15T04:40:45.650Z,3.90
2023-05-15T04:43:12.039Z,3.83
2023-05-15T04:45:38.480Z,3.50
2023-05-15T04:48:05.229Z,3.60
2023-05-15T04:50:31.687Z,3.60
2023-05-15T04:52:58.123Z,4.00
2023-05-15T04:55:24.641Z,4.00
2023-05-15T04:57:51.356Z,4.43
2023-05-15T05:00:17.873Z,3.67
2023-05-15T05:02:44.379Z,3.90
2023-05-15T05:05:11.204Z,3.90
2023-05-15T05:07:37.616Z,3.97
2023-05-15T05:10:05.339Z,3.83
2023-05-15T05:12:31.778Z,3.70
2023-05-15T05:14:58.207Z,3.93
2023-05-15T05:17:24.772Z,3.90
2023-05-15T05:19:51.232Z,4.30
2023-05-15T05:22:17.647Z,4.77
2023-05-15T05:24:44.049Z,4.10
2023-05-15T05:27:10.926Z,4.40
2023-05-15T05:29:37.400Z,4.10
2023-05-15T05:32:04.016Z,4.63
2023-05-15T05:34:30.430Z,3.83
2023-05-15T05:36:56.827Z,4.13
2023-05-15T05:39:23.406Z,4.20
2023-05-15T05:41:49.877Z,4.30
2023-05-15T05:44:16.571Z,3.90
2023-05-15T05:46:43.027Z,4.20
2023-05-15T05:49:09.482Z,4.60
2023-05-15T05:51:36.971Z,4.93
2023-05-15T05:54:03.930Z,5.20
2023-05-15T05:56:30.562Z,4.73
2023-05-15T05:58:57.159Z,4.17
2023-05-15T06:01:23.621Z,4.10
2023-05-15T06:03:50.105Z,4.03
2023-05-15T06:06:16.573Z,5.30
2023-05-15T06:08:43.180Z,5.30
2023-05-15T06:11:09.574Z,9.67
2023-05-15T06:13:36.052Z,11.90
2023-05-15T06:16:02.500Z,10.53
2023-05-15T06:18:28.957Z,16.37
2023-05-15T06:20:55.503Z,10.17
2023-05-15T06:23:23.713Z,6.20
2023-05-15T06:25:50.847Z,5.83
2023-05-15T06:28:17.249Z,6.40
2023-05-15T06:30:44.120Z,4.20
2023-05-15T06:33:10.702Z,4.63
2023-05-15T06:35:37.322Z,4.57
2023-05-15T06:38:03.952Z,4.33
2023-05-15T06:40:30.462Z,3.23
2023-05-15T06:42:56.857Z,3.20
2023-05-15T06:45:23.454Z,3.20
2023-05-15T06:47:50.028Z,3.13
2023-05-15T06:50:16.495Z,3.30
2023-05-15T06:52:42.871Z,3.53
2023-05-15T06:55:09.448Z,3.03
2023-05-15T06:57:35.864Z,3.20
2023-05-15T07:00:02.434Z,3.40
2023-05-15T07:02:29.022Z,3.40
2023-05-15T07:04:56.148Z,3.30
2023-05-15T07:07:22.664Z,2.97
2023-05-15T07:09:50.286Z,3.17
2023-05-15T07:12:16.760Z,2.97
2023-05-15T07:14:43.234Z,3.13
2023-05-15T07:17:09.908Z,3.30
2023-05-15T07:19:36.556Z,3.13
2023-05-15T07:22:03.562Z,3.10
2023-05-15T07:24:30.336Z,3.00
2023-05-15T07:26:58.587Z,3.60
2023-05-15T07:29:26.108Z,3.07
2023-05-15T07:31:52.999Z,3.13
2023-05-15T07:34:19.504Z,3.10
2023-05-15T07:36:45.986Z,3.00
2023-05-15T07:39:13.139Z,3.27
2023-05-15T07:41:39.619Z,3.60
2023-05-15T07:44:06.371Z,3.80
2023-05-15T07:46:33.670Z,3.10
2023-05-15T07:49:00.205Z,3.20
2023-05-15T07:51:26.686Z,3.20
2023-05-15T07:53:53.129Z,3.47
2023-05-15T07:56:19.604Z,3.50
2023-05-15T07:58:46.057Z,3.43
2023-05-15T08:01:12.614Z,3.90
2023-05-15T08:03:39.117Z,3.63
2023-05-15T08:06:07.287Z,3.70
2023-05-15T08:08:34.131Z,4.57
2023-05-15T08:11:00.568Z,4.73
2023-05-15T08:13:27.182Z,4.03
2023-05-15T08:15:53.675Z,4.33
2023-05-15T08:18:20.130Z,3.80
2023-05-15T08:20:46.613Z,3.90
2023-05-15T08:23:15.865Z,3.87
2023-05-15T08:25:42.316Z,4.83
2023-05-15T08:28:08.919Z,4.57
2023-05-15T08:30:36.058Z,4.07
2023-05-15T08:33:02.554Z,4.60
2023-05-15T08:35:29.116Z,4.87
2023-05-15T08:37:55.578Z,4.13
2023-05-15T08:40:34.392Z,13.07
2023-05-15T08:43:13.817Z,10.07
2023-05-15T08:45:41.407Z,10.37
2023-05-15T08:48:11.653Z,8.70
2023-05-15T08:50:40.125Z,7.80
2023-05-15T08:53:07.317Z,7.53
2023-05-15T08:55:34.032Z,7.20
2023-05-15T08:58:00.845Z,5.77
2023-05-15T09:00:28.607Z,6.23
2023-05-15T09:02:55.207Z,6.13
2023-05-15T09:05:21.747Z,5.70
2023-05-15T09:07:49.198Z,5.50
2023-05-15T09:10:16.291Z,5.93
2023-05-15T09:12:44.511Z,5.23
2023-05-15T09:15:21.733Z,5.40
2023-05-15T09:17:48.895Z,4.97
2023-05-15T09:20:29.255Z,3.90
2023-05-15T09:22:57.147Z,4.53
2023-05-15T09:25:38.185Z,3.50
2023-05-15T09:28:30.172Z,4.50
2023-05-15T09:31:01.874Z,4.93
2023-05-15T09:33:31.650Z,4.57
2023-05-15T09:35:58.222Z,4.27
2023-05-15T09:38:26.014Z,4.70
2023-05-15T09:41:04.749Z,4.70
2023-05-15T09:43:36.495Z,5.63
2023-05-15T09:46:03.376Z,5.67
2023-05-15T09:48:31.205Z,5.60
2023-05-15T09:50:58.388Z,5.10
2023-05-15T09:53:25.255Z,5.20
2023-05-15T09:55:53.633Z,5.10
2023-05-15T09:58:20.161Z,5.53
2023-05-15T10:00:49.560Z,5.40
2023-05-15T10:03:19.598Z,6.37
2023-05-15T10:05:46.534Z,6.33
2023-05-15T10:08:15.009Z,6.57
2023-05-15T10:10:41.935Z,6.20
2023-05-15T10:13:09.999Z,5.97
2023-05-15T10:15:38.075Z,5.50
2023-05-15T10:18:05.082Z,5.60
2023-05-15T10:20:35.589Z,5.57
2023-05-15T10:23:04.720Z,6.50
2023-05-15T10:25:58.958Z,6.43
2023-05-15T10:28:27.052Z,6.20
2023-05-15T10:30:55.894Z,7.00
2023-05-15T10:33:23.866Z,7.53
2023-05-15T10:35:52.138Z,5.63
2023-05-15T10:38:19.926Z,5.53
2023-05-15T10:40:47.207Z,6.43
2023-05-15T10:43:14.364Z,6.50
2023-05-15T10:45:41.627Z,7.10
2023-05-15T10:48:12.195Z,6.90
2023-05-15T10:50:39.002Z,6.67
2023-05-15T10:53:06.180Z,7.00
2023-05-15T10:55:32.808Z,7.17
2023-05-15T10:57:59.596Z,7.00
2023-05-15T11:00:27.869Z,6.73
2023-05-15T11:02:56.999Z,7.53
2023-05-15T11:05:24.432Z,8.33
2023-05-15T11:08:15.912Z,6.90
2023-05-15T11:10:42.428Z,8.23
2023-05-15T11:13:08.999Z,8.33
2023-05-15T11:15:46.535Z,9.83
2023-05-15T11:18:13.221Z,11.93
2023-05-15T11:20:52.076Z,12.07
2023-05-15T11:23:22.403Z,10.57
2023-05-15T11:25:57.192Z,9.27
2023-05-15T11:28:25.267Z,7.67
2023-05-15T11:30:53.509Z,7.00
2023-05-15T11:33:20.979Z,6.40
2023-05-15T11:35:48.478Z,5.30
2023-05-15T11:38:20.154Z,4.53
2023-05-15T11:40:48.150Z,3.90
2023-05-15T11:43:36.494Z,4.80
2023-05-15T11:46:02.944Z,4.20
2023-05-15T11:48:33.427Z,3.70
2023-05-15T11:51:04.244Z,3.10
2023-05-15T11:53:32.223Z,3.63
2023-05-15T11:55:59.103Z,3.10
2023-05-15T11:58:26.289Z,2.67
2023-05-15T12:00:53.726Z,2.23
2023-05-15T12:03:38.734Z,2.73
2023-05-15T12:06:06.195Z,3.03
2023-05-15T12:08:34.289Z,3.07
2023-05-15T12:11:01.514Z,2.40
2023-05-15T12:13:28.318Z,2.60
2023-05-15T12:15:55.866Z,2.93
2023-05-15T12:18:22.924Z,2.83
2023-05-15T12:20:52.912Z,3.40
2023-05-15T12:23:22.336Z,2.67
2023-05-15T12:25:50.787Z,3.30
2023-05-15T12:28:17.693Z,4.17
2023-05-15T12:30:44.825Z,3.30
2023-05-15T12:33:12.881Z,3.20
2023-05-15T12:35:44.737Z,3.40
2023-05-15T12:38:17.763Z,3.43
2023-05-15T12:40:49.588Z,3.60
2023-05-15T12:43:16.009Z,3.60
2023-05-15T12:45:42.556Z,3.80
2023-05-15T12:48:14.927Z,4.00
2023-05-15T12:50:44.698Z,3.40
2023-05-15T12:53:14.322Z,3.80
2023-05-15T12:55:41.181Z,3.70
2023-05-15T12:58:10.385Z,4.33
2023-05-15T13:00:39.447Z,4.40
2023-05-15T13:03:09.761Z,4.47
2023-05-15T13:05:37.260Z,4.43
2023-05-15T13:08:06.044Z,4.53
2023-05-15T13:10:34.354Z,5.17
2023-05-15T13:13:00.956Z,5.47
2023-05-15T13:15:44.682Z,5.03
2023-05-15T13:18:16.698Z,5.00
2023-05-15T13:20:43.961Z,6.10
2023-05-15T13:23:16.015Z,6.77
2023-05-15T13:25:43.051Z,6.70
2023-05-15T13:28:10.832Z,7.10
2023-05-15T13:30:46.931Z,7.10
2023-05-15T13:33:13.520Z,7.00
2023-05-15T13:35:41.092Z,7.10
2023-05-15T13:38:10.385Z,7.80
2023-05-15T13:40:38.345Z,9.50
2023-05-15T13:43:06.506Z,10.20
2023-05-15T13:45:33.368Z,11.20
2023-05-15T13:47:59.902Z,10.87
2023-05-15T13:50:26.751Z,10.37
2023-05-15T13:52:54.391Z,9.67
2023-05-15T13:55:23.007Z,9.63
2023-05-15T13:57:49.822Z,9.27
2023-05-15T14:00:17.269Z,10.00
2023-05-15T14:02:44.623Z,10.00
2023-05-15T14:05:12.839Z,10.67
2023-05-15T14:07:39.873Z,10.77
2023-05-15T14:10:07.137Z,10.03
2023-05-15T14:12:33.701Z,10.47
2023-05-15T14:15:01.004Z,8.97
2023-05-15T14:17:28.388Z,9.23
2023-05-15T14:19:54.930Z,9.03
2023-05-15T14:22:24.601Z,8.90
2023-05-15T14:24:52.198Z,8.00
2023-05-15T14:27:18.642Z,6.93
2023-05-15T14:29:45.169Z,6.80
2023-05-15T14:32:11.630Z,6.30
2023-05-15T14:34:38.159Z,7.10
2023-05-15T14:37:04.802Z,6.47
2023-05-15T14:39:31.828Z,6.37
2023-05-15T14:41:58.426Z,6.63
2023-05-15T14:44:24.882Z,6.90
2023-05-15T14:47:08.426Z,6.50
2023-05-15T14:49:35.991Z,5.80
2023-05-15T14:52:03.709Z,6.60
2023-05-15T14:54:30.209Z,6.20
2023-05-15T14:56:57.651Z,6.23
2023-05-15T14:59:25.305Z,6.37
2023-05-15T15:01:51.874Z,6.63
2023-05-15T15:04:18.375Z,6.43
2023-05-15T15:06:44.974Z,7.17
2023-05-15T15:09:11.535Z,6.60
2023-05-15T15:11:37.969Z,7.10
2023-05-15T15:14:04.476Z,6.73
2023-05-15T15:16:31.080Z,7.07
2023-05-15T15:18:57.616Z,6.77
2023-05-15T15:21:24.189Z,6.50
2023-05-15T15:23:50.962Z,6.70
2023-05-15T15:26:17.417Z,5.93
2023-05-15T15:28:43.847Z,6.23
2023-05-15T15:31:10.704Z,6.63
2023-05-15T15:33:37.383Z,6.47
2023-05-15T15:36:04.058Z,6.70
2023-05-15T15:38:30.551Z,6.50
2023-05-15T15:40:56.963Z,6.83
2023-05-15T15:43:23.369Z,6.80
2023-05-15T15:45:49.827Z,7.10
2023-05-15T15:48:16.303Z,6.37
2023-05-15T15:50:42.735Z,6.30
2023-05-15T15:53:09.157Z,7.00
2023-05-15T15:55:35.556Z,6.53
2023-05-15T15:58:01.970Z,6.43
2023-05-15T16:00:28.426Z,6.20
2023-05-15T16:02:54.942Z,6.53
2023-05-15T16:05:21.383Z,6.77
2023-05-15T16:07:47.882Z,6.33
2023-05-15T16:10:14.410Z,6.53
2023-05-15T16:12:42.160Z,6.60
2023-05-15T16:15:21.504Z,7.37
2023-05-15T16:17:51.361Z,6.87
2023-05-15T16:20:17.939Z,6.97
2023-05-15T16:22:44.503Z,6.83
2023-05-15T16:25:10.970Z,7.70
2023-05-15T16:27:37.454Z,6.80
2023-05-15T16:30:04.133Z,7.03
2023-05-15T16:32:30.800Z,7.90
2023-05-15T16:34:57.527Z,7.50
2023-05-15T16:37:23.960Z,7.23
2023-05-15T16:39:50.447Z,6.83
2023-05-15T16:42:16.884Z,7.33
2023-05-15T16:44:43.320Z,7.90
2023-05-15T16:47:09.724Z,7.63
2023-05-15T16:49:36.151Z,7.70
2023-05-15T16:52:02.554Z,7.60
2023-05-15T16:54:28.959Z,8.23
2023-05-15T16:56:55.877Z,7.13
2023-05-15T16:59:22.357Z,7.90
2023-05-15T17:01:48.844Z,8.30
2023-05-15T17:04:15.309Z,8.40
2023-05-15T17:06:41.718Z,7.63
2023-05-15T17:09:08.119Z,8.40
2023-05-15T17:11:34.647Z,8.40
2023-05-15T17:14:01.502Z,8.57
2023-05-15T17:16:28.133Z,8.17
2023-05-15T17:18:54.655Z,8.90
2023-05-15T17:21:21.120Z,7.47
2023-05-15T17:23:47.524Z,7.90
2023-05-15T17:26:13.969Z,7.53
2023-05-15T17:28:40.473Z,8.40
2023-05-15T17:31:10.702Z,7.87
2023-05-15T17:33:37.127Z,8.23
2023-05-15T17:36:03.840Z,8.53
2023-05-15T17:38:30.300Z,10.47
2023-05-15T17:40:56.745Z,9.00
2023-05-15T17:43:23.141Z,9.63
2023-05-15T17:45:49.636Z,10.00
2023-05-15T17:48:16.130Z,9.97
2023-05-15T17:50:42.544Z,10.73
2023-05-15T17:53:08.950Z,9.87
2023-05-15T17:55:35.367Z,10.90
2023-05-15T17:58:01.894Z,9.90
2023-05-15T18:00:28.328Z,10.83
2023-05-15T18:02:54.839Z,10.00
2023-05-15T18:05:21.434Z,10.17
2023-05-15T18:07:48.164Z,10.57
2023-05-15T18:10:14.747Z,10.13
2023-05-15T18:12:41.189Z,9.93
2023-05-15T18:15:08.093Z,10.87
2023-05-15T18:17:34.563Z,10.97
2023-05-15T18:20:01.700Z,10.47
2023-05-15T18:22:28.112Z,11.10
2023-05-15T18:24:54.506Z,11.53
2023-05-15T18:27:20.968Z,11.23
2023-05-15T18:29:47.398Z,11.07
2023-05-15T18:32:13.836Z,11.77
2023-05-15T18:34:40.271Z,11.90
2023-05-15T18:37:06.689Z,11.13
2023-05-15T18:39:33.100Z,11.00
2023-05-15T18:42:00.261Z,11.23
2023-05-15T18:44:26.675Z,10.53
2023-05-15T18:46:53.116Z,11.83
2023-05-15T18:49:19.610Z,11.63
2023-05-15T18:51:46.061Z,11.33
2023-05-15T18:54:12.533Z,11.60
2023-05-15T18:56:40.640Z,11.83
2023-05-15T18:59:08.936Z,11.17
2023-05-15T19:01:35.482Z,10.30
2023-05-15T19:04:03.605Z,10.03
2023-05-15T19:06:30.924Z,10.67
2023-05-15T19:08:57.361Z,10.03
2023-05-15T19:11:23.766Z,9.90
2023-05-15T19:13:50.284Z,10.43
2023-05-15T19:16:16.707Z,11.20
2023-05-15T19:18:43.263Z,10.60
2023-05-15T19:21:09.856Z,11.07
2023-05-15T19:23:36.297Z,11.53
2023-05-15T19:26:02.724Z,11.50
2023-05-15T19:28:29.160Z,11.70
2023-05-15T19:30:55.619Z,12.83
2023-05-15T19:33:22.164Z,13.83
2023-05-15T19:35:48.625Z,15.63
2023-05-15T19:38:15.616Z,14.73
2023-05-15T19:40:44.552Z,16.30
2023-05-15T19:43:11.372Z,19.60
2023-05-15T19:45:41.079Z,21.20
2023-05-15T19:48:07.589Z,18.20
2023-05-15T19:50:34.189Z,14.33
2023-05-15T19:53:00.876Z,12.70
2023-05-15T19:55:27.542Z,12.50
2023-05-15T19:57:55.907Z,11.63
2023-05-15T20:00:22.665Z,12.60
2023-05-15T20:02:49.127Z,12.00
2023-05-15T20:05:15.828Z,12.20
2023-05-15T20:07:43.091Z,12.10
2023-05-15T20:10:10.358Z,12.37
2023-05-15T20:12:37.136Z,12.03
2023-05-15T20:15:03.869Z,11.57
2023-05-15T20:17:30.541Z,11.53
2023-05-15T20:19:58.994Z,11.00
2023-05-15T20:22:25.431Z,11.90
2023-05-15T20:24:52.064Z,11.10
2023-05-15T20:27:18.560Z,12.00
2023-05-15T20:29:45.381Z,12.10
2023-05-15T20:32:13.168Z,11.67
2023-05-15T20:34:41.824Z,11.20
2023-05-15T20:37:09.018Z,11.70
2023-05-15T20:39:35.484Z,11.30
2023-05-15T20:42:01.975Z,12.57
2023-05-15T20:44:29.793Z,11.63
2023-05-15T20:46:56.679Z,11.90
2023-05-15T20:49:23.410Z,12.20
2023-05-15T20:51:50.025Z,11.23
2023-05-15T20:54:16.477Z,12.03
2023-05-15T20:56:43.013Z,12.40
2023-05-15T20:59:09.457Z,11.93
2023-05-15T21:01:36.353Z,12.07
2023-05-15T21:04:02.969Z,13.77
2023-05-15T21:06:29.464Z,13.57
2023-05-15T21:08:55.902Z,12.67
2023-05-15T21:11:22.819Z,12.73
2023-05-15T21:13:49.263Z,11.17
2023-05-15T21:16:15.777Z,11.90
2023-05-15T21:18:42.294Z,10.93
2023-05-15T21:21:08.792Z,11.93
2023-05-15T21:23:38.245Z,12.27
2023-05-15T21:26:05.231Z,11.77
2023-05-15T21:28:31.737Z,12.07
2023-05-15T21:30:58.384Z,11.20
2023-05-15T21:33:24.774Z,13.00
2023-05-15T21:35:51.480Z,13.07
2023-05-15T21:38:18.294Z,12.77
2023-05-15T21:40:44.896Z,14.13
2023-05-15T21:43:11.300Z,16.03
2023-05-15T21:45:37.699Z,15.27
2023-05-15T21:48:04.368Z,16.73
2023-05-15T21:50:30.852Z,16.67
2023-05-15T21:52:57.394Z,15.43
2023-05-15T21:55:25.507Z,17.50
2023-05-15T21:57:51.900Z,18.10
2023-05-15T22:00:18.573Z,17.67
2023-05-15T22:02:45.302Z,18.07
2023-05-15T22:05:12.016Z,19.13
2023-05-15T22:07:38.423Z,18.67
2023-05-15T22:10:05.419Z,19.87
2023-05-15T22:12:32.195Z,20.37
2023-05-15T22:14:59.721Z,20.27
2023-05-15T22:17:29.052Z,20.03
2023-05-15T22:20:02.564Z,19.03
2023-05-15T22:22:29.113Z,19.43
2023-05-15T22:24:55.885Z,20.77
2023-05-15T22:27:22.310Z,19.93
2023-05-15T22:29:48.758Z,20.50
2023-05-15T22:32:15.327Z,20.63
2023-05-15T22:34:41.732Z,22.03
2023-05-15T22:37:08.174Z,22.57
2023-05-15T22:39:34.820Z,23.20
2023-05-15T22:42:01.228Z,23.20
2023-05-15T22:44:28.405Z,23.00
2023-05-15T22:46:54.845Z,24.70
2023-05-15T22:49:25.296Z,23.80
2023-05-15T22:51:52.427Z,24.77
2023-05-15T22:54:21.936Z,23.07
2023-05-15T22:56:51.443Z,24.70
2023-05-15T22:59:18.346Z,25.27
2023-05-15T23:01:45.628Z,25.27
2023-05-15T23:04:12.677Z,24.67
2023-05-15T23:06:41.129Z,24.40
2023-05-15T23:09:08.418Z,23.23
2023-05-15T23:11:35.515Z,23.87
2023-05-15T23:14:02.886Z,23.83
2023-05-15T23:16:29.517Z,23.53
2023-05-15T23:18:57.556Z,22.83
2023-05-15T23:21:24.261Z,24.40
2023-05-15T23:23:50.782Z,22.13
2023-05-15T23:26:17.311Z,22.17
2023-05-15T23:28:43.771Z,22.40
2023-05-15T23:31:13.066Z,22.90
2023-05-15T23:33:39.813Z,22.70
2023-05-15T23:36:06.573Z,23.17
2023-05-15T23:38:33.103Z,22.07
2023-05-15T23:40:59.572Z,23.00
2023-05-15T23:43:26.254Z,22.23
2023-05-15T23:45:52.706Z,22.00
2023-05-15T23:48:19.250Z,22.30
2023-05-15T23:50:45.731Z,21.50
2023-05-15T23:53:12.140Z,21.70
2023-05-15T23:55:38.556Z,21.70
2023-05-15T23:58:05.063Z,22.40
